KCBK/CBK METAR and TAF weather

Enter ICAO airport designator
Station Type Date Time Source
KCBK METAR 2021/05/15 01:35 UTC NOAA

KCBK 150135Z AUTO 06012KT 10SM SCT031 BKN041 OVC060 16/14 A3001 RMK AO2 P0007 T01610143


Station Type Date Time Source
KCBK Decoded METAR 2021/05/15 01:35 UTC NOAA

Station name not available
May 14, 2021 - 09:35 PM EDT / 2021.05.15 0135 UTC
Wind: from the ENE (060 degrees) at 14 MPH (12 KT):0
Visibility: 10 mile(s):0
Sky conditions: overcast
Precipitation last hour: 0.07 inches
Temperature: 61.0 F (16.1 C)
Dew Point: 57.7 F (14.3 C)
Relative Humidity: 89%
Pressure (altimeter): 30.01 in. Hg (1016 hPa)
ob: KCBK 150135Z AUTO 06012KT 10SM SCT031 BKN041 OVC060 16/14 A3001 RMK AO2 P0007 T01610143
cycle: 1

Station Type Date Time Source
KCBK TAF UTC NOAA

Error!

Example: see airport list